Terminal Aerodrome Forecast
Issued by NWS

Home | Current Version | Previous Version | Text Only | Print | Product List | Glossary On
Versions: 1 2 3 4 5 6 7 8 9 10 11 12 13 14 15 16 17 18 19 20 21
000
FTUS43 KMKX 190520
TAFUES
TAF
KUES 190520Z 1906/2006 18009KT P6SM SCT080 BKN250 WS020/21050KT
     FM190900 19006KT P6SM BKN050
     FM191300 18006KT 1SM BR VCSH BKN005 OVC015
     FM191500 14005KT 1/2SM -RA FG OVC003
     FM191800 08006KT 1/2SM RA FG OVC003
     FM200400 04007KT 3/4SM RA BR OVC003=

USA.gov is the U.S. government's official web portal to all federal, state and local government web resources and services.